createdAt,value
2023-04-03T00:00:40.327Z,5.43
2023-04-03T00:03:08.026Z,5.30
2023-04-03T00:05:36.484Z,5.28
2023-04-03T00:08:05.543Z,5.32
2023-04-03T00:10:34.857Z,5.35
2023-04-03T00:13:03.252Z,5.28
2023-04-03T00:15:31.097Z,5.45
2023-04-03T00:17:59.078Z,5.43
2023-04-03T00:20:27.464Z,5.65
2023-04-03T00:22:55.674Z,6.25
2023-04-03T00:25:24.201Z,5.95
2023-04-03T00:27:53.929Z,6.25
2023-04-03T00:30:23.671Z,6.13
2023-04-03T00:32:52.573Z,6.22
2023-04-03T00:35:22.754Z,6.10
2023-04-03T00:37:52.808Z,6.65
2023-04-03T00:40:21.486Z,6.85
2023-04-03T00:42:51.608Z,6.43
2023-04-03T00:45:31.314Z,6.30
2023-04-03T00:50:48.528Z,7.13
2023-04-03T00:53:20.019Z,6.70
2023-04-03T00:55:50.211Z,6.82
2023-04-03T00:58:20.796Z,7.32
2023-04-03T01:00:58.836Z,7.30
2023-04-03T01:03:26.725Z,7.35
2023-04-03T01:05:54.522Z,7.95
2023-04-03T01:08:22.945Z,6.88
2023-04-03T01:10:50.720Z,7.15
2023-04-03T01:13:26.201Z,6.88
2023-04-03T01:15:56.008Z,7.47
2023-04-03T01:18:24.838Z,7.18
2023-04-03T01:21:25.554Z,7.10
2023-04-03T01:24:03.141Z,6.65
2023-04-03T01:26:32.097Z,7.03
2023-04-03T01:29:01.563Z,6.93
2023-04-03T01:31:34.309Z,7.20
2023-04-03T01:34:03.643Z,7.03
2023-04-03T01:36:33.465Z,6.60
2023-04-03T01:39:02.608Z,7.30
2023-04-03T01:41:30.775Z,7.15
2023-04-03T01:43:58.455Z,7.05
2023-04-03T01:46:26.548Z,6.57
2023-04-03T01:48:55.599Z,7.22
2023-04-03T01:51:24.660Z,7.38
2023-04-03T01:53:52.927Z,7.15
2023-04-03T01:56:21.116Z,7.30
2023-04-03T01:58:48.859Z,7.55
2023-04-03T02:01:17.796Z,6.70
2023-04-03T02:03:45.619Z,7.38
2023-04-03T02:06:13.303Z,7.30
2023-04-03T02:08:43.142Z,6.60
2023-04-03T02:11:10.939Z,6.22
2023-04-03T02:13:38.603Z,7.90
2023-04-03T02:16:11.606Z,8.07
2023-04-03T02:18:39.354Z,7.72
2023-04-03T02:21:07.283Z,9.60
2023-04-03T02:23:37.658Z,9.82
2023-04-03T02:26:08.808Z,10.32
2023-04-03T02:28:36.786Z,10.57
2023-04-03T02:31:05.566Z,10.88
2023-04-03T02:33:33.228Z,9.73
2023-04-03T02:36:01.380Z,9.63
2023-04-03T02:38:29.281Z,9.55
2023-04-03T02:41:02.310Z,9.25
2023-04-03T02:43:31.918Z,8.63
2023-04-03T02:48:27.478Z,7.30
2023-04-03T02:50:55.774Z,8.40
2023-04-03T02:53:23.968Z,8.43
2023-04-03T02:55:51.759Z,8.48
2023-04-03T02:58:20.040Z,8.32
2023-04-03T03:00:49.089Z,8.98
2023-04-03T03:03:16.762Z,7.97
2023-04-03T03:05:44.999Z,8.25
2023-04-03T03:08:12.670Z,8.35
2023-04-03T03:10:40.370Z,7.72
2023-04-03T03:13:08.607Z,7.30
2023-04-03T03:15:36.288Z,7.70
2023-04-03T03:18:05.790Z,7.75
2023-04-03T03:20:34.390Z,7.68
2023-04-03T03:23:02.235Z,8.00
2023-04-03T03:25:29.912Z,8.10
2023-04-03T03:27:58.116Z,7.57
2023-04-03T03:30:26.102Z,7.68
2023-04-03T03:32:53.860Z,7.30
2023-04-03T03:35:23.509Z,7.15
2023-04-03T03:40:19.458Z,6.97
2023-04-03T03:42:47.642Z,6.70
2023-04-03T03:45:15.512Z,7.10
2023-04-03T03:47:43.410Z,6.85
2023-04-03T03:50:12.237Z,7.22
2023-04-03T03:52:41.448Z,6.80
2023-04-03T03:55:09.728Z,6.35
2023-04-03T03:57:38.011Z,6.95
2023-04-03T04:00:08.074Z,6.40
2023-04-03T04:02:35.867Z,6.00
2023-04-03T04:05:04.439Z,6.47
2023-04-03T04:07:32.202Z,6.47
2023-04-03T04:10:01.503Z,6.53
2023-04-03T04:12:29.769Z,6.88
2023-04-03T04:14:57.418Z,6.50
2023-04-03T04:17:25.173Z,6.28
2023-04-03T04:19:53.668Z,6.72
2023-04-03T04:22:21.357Z,6.18
2023-04-03T04:24:49.024Z,6.43
2023-04-03T04:27:18.578Z,6.80
2023-04-03T04:29:46.254Z,6.25
2023-04-03T04:32:13.925Z,6.50
2023-04-03T04:34:42.207Z,6.35
2023-04-03T04:37:09.909Z,6.50
2023-04-03T04:39:37.642Z,6.20
2023-04-03T04:42:06.170Z,6.13
2023-04-03T04:44:35.444Z,6.32
2023-04-03T04:47:03.126Z,6.60
2023-04-03T04:49:31.334Z,6.18
2023-04-03T04:51:59.013Z,6.45
2023-04-03T04:54:26.708Z,6.45
2023-04-03T04:56:55.009Z,6.10
2023-04-03T04:59:22.694Z,6.50
2023-04-03T05:01:51.832Z,5.97
2023-04-03T05:04:20.190Z,6.18
2023-04-03T05:06:47.952Z,5.90
2023-04-03T05:09:16.035Z,6.38
2023-04-03T05:11:44.517Z,5.90
2023-04-03T05:14:12.214Z,6.20
2023-04-03T05:16:39.994Z,5.97
2023-04-03T05:19:09.056Z,5.63
2023-04-03T05:21:36.722Z,6.40
2023-04-03T05:24:04.689Z,6.20
2023-04-03T05:26:33.807Z,5.93
2023-04-03T05:29:01.487Z,6.38
2023-04-03T05:31:30.348Z,6.18
2023-04-03T05:33:59.179Z,5.90
2023-04-03T05:36:28.447Z,6.13
2023-04-03T05:38:57.264Z,6.20
2023-04-03T05:41:26.327Z,5.93
2023-04-03T05:43:54.070Z,5.75
2023-04-03T05:46:23.144Z,6.10
2023-04-03T05:48:51.922Z,6.40
2023-04-03T05:51:21.266Z,6.35
2023-04-03T05:53:54.923Z,7.10
2023-04-03T05:56:22.598Z,6.80
2023-04-03T05:58:50.280Z,6.45
2023-04-03T06:01:18.642Z,6.15
2023-04-03T06:03:46.549Z,6.75
2023-04-03T06:06:15.460Z,6.13
2023-04-03T06:08:45.137Z,6.75
2023-04-03T06:13:41.728Z,7.23
2023-04-03T06:16:11.853Z,6.90
2023-04-03T06:18:39.533Z,6.97
2023-04-03T06:21:08.722Z,7.30
2023-04-03T06:23:37.114Z,6.93
2023-04-03T06:26:05.075Z,6.60
2023-04-03T06:28:34.296Z,7.47
2023-04-03T06:31:02.479Z,7.43
2023-04-03T06:33:30.184Z,7.25
2023-04-03T06:35:59.958Z,7.47
2023-04-03T06:38:28.600Z,8.20
2023-04-03T06:40:56.989Z,7.35
2023-04-03T06:43:25.348Z,7.47
2023-04-03T06:45:55.953Z,7.70
2023-04-03T06:48:23.962Z,8.43
2023-04-03T06:50:51.672Z,8.05
2023-04-03T06:53:19.754Z,8.55
2023-04-03T06:55:47.937Z,8.10
2023-04-03T06:58:16.166Z,7.93
2023-04-03T07:00:44.449Z,8.00
2023-04-03T07:03:13.492Z,9.07
2023-04-03T07:05:41.597Z,8.70
2023-04-03T07:08:09.825Z,9.73
2023-04-03T07:10:37.526Z,9.60
2023-04-03T07:13:05.371Z,9.35
2023-04-03T07:15:35.496Z,9.00
2023-04-03T07:18:03.219Z,8.90
2023-04-03T07:20:32.336Z,9.75
2023-04-03T07:23:02.768Z,8.82
2023-04-03T07:25:31.212Z,8.68
2023-04-03T07:27:58.881Z,8.05
2023-04-03T07:30:27.114Z,8.18
2023-04-03T07:32:54.846Z,8.60
2023-04-03T07:35:22.536Z,8.02
2023-04-03T07:37:52.113Z,8.18
2023-04-03T07:42:48.619Z,7.75
2023-04-03T07:45:16.921Z,8.30
2023-04-03T07:47:44.656Z,7.90
2023-04-03T07:50:12.627Z,8.00
2023-04-03T07:52:40.876Z,7.80
2023-04-03T07:55:11.201Z,6.93
2023-04-03T07:57:38.948Z,7.53
2023-04-03T08:00:08.677Z,7.57
2023-04-03T08:05:04.224Z,6.85
2023-04-03T08:07:32.421Z,7.22
2023-04-03T08:10:00.386Z,6.70
2023-04-03T08:12:30.798Z,6.70
2023-04-03T08:14:59.042Z,6.65
2023-04-03T08:17:27.854Z,6.32
2023-04-03T08:19:55.570Z,5.82
2023-04-03T08:22:23.686Z,6.13
2023-04-03T08:24:58.461Z,5.72
2023-04-03T08:27:28.259Z,6.10
2023-04-03T08:29:57.854Z,6.13
2023-04-03T08:32:26.576Z,6.07
2023-04-03T08:34:54.771Z,5.68
2023-04-03T08:37:22.449Z,5.70
2023-04-03T08:39:50.112Z,5.57
2023-04-03T08:42:29.096Z,5.40
2023-04-03T08:45:04.203Z,5.57
2023-04-03T08:47:41.574Z,5.47
2023-04-03T08:50:14.757Z,5.30
2023-04-03T08:52:46.817Z,5.50
2023-04-03T08:55:24.695Z,5.30
2023-04-03T08:58:01.148Z,5.03
2023-04-03T09:00:35.036Z,5.38
2023-04-03T09:03:03.579Z,5.07
2023-04-03T09:05:41.410Z,4.95
2023-04-03T09:08:17.240Z,4.10
2023-04-03T09:10:45.337Z,3.88
2023-04-03T09:13:27.565Z,4.03
2023-04-03T09:15:57.697Z,4.25
2023-04-03T09:18:31.565Z,3.70
2023-04-03T09:21:09.981Z,4.38
2023-04-03T09:23:46.455Z,3.50
2023-04-03T09:26:18.730Z,3.20
2023-04-03T09:28:50.466Z,2.90
2023-04-03T09:31:24.541Z,3.22
2023-04-03T09:33:56.866Z,2.85
2023-04-03T09:36:41.369Z,3.17
2023-04-03T09:39:14.038Z,3.10
2023-04-03T09:41:41.732Z,3.17
2023-04-03T09:44:23.920Z,2.95
2023-04-03T09:46:53.376Z,3.20
2023-04-03T09:51:51.666Z,2.72
2023-04-03T09:54:43.126Z,2.95
2023-04-03T09:57:14.740Z,2.60
2023-04-03T09:59:46.669Z,2.70
2023-04-03T10:02:40.874Z,2.72
2023-04-03T10:05:32.992Z,3.15
2023-04-03T10:08:13.421Z,2.88
2023-04-03T10:10:41.973Z,3.20
2023-04-03T10:13:20.156Z,2.88
2023-04-03T10:15:53.699Z,3.10
2023-04-03T10:18:35.349Z,3.08
2023-04-03T10:21:14.512Z,3.78
2023-04-03T10:23:52.546Z,2.75
2023-04-03T10:26:34.830Z,2.50
2023-04-03T10:29:11.719Z,3.00
2023-04-03T10:31:48.051Z,3.30
2023-04-03T10:34:25.959Z,2.80
2023-04-03T10:37:01.604Z,2.80
2023-04-03T10:39:38.787Z,2.65
2023-04-03T10:42:17.288Z,2.70
2023-04-03T10:45:00.127Z,2.58
2023-04-03T10:47:37.211Z,2.65
2023-04-03T10:50:25.225Z,2.78
2023-04-03T10:52:59.504Z,3.00
2023-04-03T10:55:38.216Z,2.78
2023-04-03T10:58:08.042Z,2.57
2023-04-03T11:00:44.097Z,2.60
2023-04-03T11:03:16.926Z,2.83
2023-04-03T11:05:48.303Z,2.72
2023-04-03T11:08:28.312Z,2.42
2023-04-03T11:11:00.291Z,2.50
2023-04-03T11:13:33.385Z,2.72
2023-04-03T11:16:01.902Z,2.83
2023-04-03T11:18:37.335Z,3.20
2023-04-03T11:21:12.435Z,2.60
2023-04-03T11:23:49.586Z,2.20
2023-04-03T11:26:22.412Z,2.10
2023-04-03T11:28:55.909Z,2.38
2023-04-03T11:31:44.989Z,2.50
2023-04-03T11:34:28.924Z,1.70
2023-04-03T11:37:02.041Z,2.20
2023-04-03T11:39:34.669Z,1.88
2023-04-03T11:42:17.779Z,2.00
2023-04-03T11:44:45.724Z,2.17
2023-04-03T11:47:46.599Z,1.85
2023-04-03T11:50:42.653Z,2.03
2023-04-03T11:53:46.382Z,2.03
2023-04-03T11:56:31.436Z,1.80
2023-04-03T11:59:24.930Z,2.00
2023-04-03T12:01:53.958Z,2.00
2023-04-03T12:04:24.469Z,1.92
2023-04-03T12:06:57.913Z,1.80
2023-04-03T12:09:44.548Z,2.03
2023-04-03T12:12:39.331Z,2.20
2023-04-03T12:15:23.749Z,1.90
2023-04-03T12:17:53.085Z,2.03
2023-04-03T12:20:54.778Z,2.03
2023-04-03T12:23:31.247Z,2.60
2023-04-03T12:26:20.371Z,2.20
2023-04-03T12:28:49.744Z,2.20
2023-04-03T12:31:18.060Z,2.20
2023-04-03T12:34:06.985Z,2.10
2023-04-03T12:36:47.793Z,1.80
2023-04-03T12:39:42.903Z,2.17
2023-04-03T12:42:26.241Z,2.05
2023-04-03T12:45:04.663Z,2.00
2023-04-03T12:47:37.740Z,2.97
2023-04-03T12:50:18.649Z,1.90
2023-04-03T12:52:49.819Z,1.60
2023-04-03T12:55:19.293Z,2.08
2023-04-03T12:57:48.636Z,2.33
2023-04-03T13:00:34.894Z,3.22
2023-04-03T13:03:04.068Z,2.58
2023-04-03T13:05:35.226Z,1.80
2023-04-03T13:08:07.858Z,1.80
2023-04-03T13:10:49.887Z,2.00
2023-04-03T13:13:19.425Z,3.38
2023-04-03T13:15:50.137Z,2.83
2023-04-03T13:18:28.096Z,1.60
2023-04-03T13:21:01.901Z,1.80
2023-04-03T13:23:30.955Z,1.60
2023-04-03T13:26:04.227Z,2.92
2023-04-03T13:28:35.838Z,4.22
2023-04-03T13:31:11.076Z,6.70
2023-04-03T13:33:40.351Z,2.80
2023-04-03T13:36:18.380Z,3.47
2023-04-03T13:38:47.361Z,7.72
2023-04-03T13:41:28.343Z,3.33
2023-04-03T13:44:06.629Z,1.80
2023-04-03T13:46:39.955Z,2.22
2023-04-03T13:49:21.188Z,3.20
2023-04-03T13:51:56.950Z,3.80
2023-04-03T13:54:34.783Z,4.30
2023-04-03T13:57:04.182Z,5.05
2023-04-03T13:59:35.401Z,2.28
2023-04-03T14:02:16.614Z,2.10
2023-04-03T14:04:51.871Z,2.25
2023-04-03T14:07:21.072Z,2.42
2023-04-03T14:09:49.049Z,2.80
2023-04-03T14:12:30.798Z,2.53
2023-04-03T14:15:02.605Z,2.95
2023-04-03T14:17:31.173Z,2.00
2023-04-03T14:20:01.865Z,2.47
2023-04-03T14:22:33.227Z,1.90
2023-04-03T14:25:01.622Z,1.95
2023-04-03T14:27:35.427Z,2.53
2023-04-03T14:30:06.466Z,1.73
2023-04-03T14:32:34.444Z,1.70
2023-04-03T14:35:02.769Z,2.10
2023-04-03T14:37:32.450Z,1.52
2023-04-03T14:42:32.024Z,2.20
2023-04-03T14:45:00.567Z,1.90
2023-04-03T14:47:32.486Z,2.00
2023-04-03T14:50:02.315Z,1.70
2023-04-03T14:52:32.932Z,1.80
2023-04-03T14:55:01.382Z,1.58
2023-04-03T14:57:31.460Z,2.05
2023-04-03T14:59:59.604Z,1.77
2023-04-03T15:02:32.147Z,1.75
2023-04-03T15:05:01.305Z,1.40
2023-04-03T15:07:31.439Z,1.63
2023-04-03T15:09:59.377Z,1.90
2023-04-03T15:12:27.400Z,1.67
2023-04-03T15:15:01.780Z,2.03
2023-04-03T15:17:32.370Z,1.77
2023-04-03T15:20:00.752Z,1.83
2023-04-03T15:22:28.975Z,2.20
2023-04-03T15:24:57.154Z,2.00
2023-04-03T15:27:24.884Z,2.17
2023-04-03T15:29:52.582Z,2.20
2023-04-03T15:32:21.061Z,3.05
2023-04-03T15:34:50.568Z,2.03
2023-04-03T15:37:18.724Z,1.95
2023-04-03T15:39:47.142Z,2.00
2023-04-03T15:42:14.940Z,1.90
2023-04-03T15:44:42.619Z,2.10
2023-04-03T15:47:11.191Z,2.08
2023-04-03T15:49:40.339Z,2.50
2023-04-03T15:52:09.410Z,2.20
2023-04-03T15:54:37.645Z,2.10
2023-04-03T15:57:05.371Z,2.10
2023-04-03T15:59:33.225Z,2.00
2023-04-03T16:02:04.038Z,2.70
2023-04-03T16:04:32.156Z,2.22
2023-04-03T16:07:02.464Z,2.35
2023-04-03T16:09:32.299Z,2.20
2023-04-03T16:12:00.090Z,2.15
2023-04-03T16:14:28.912Z,2.33
2023-04-03T16:16:58.009Z,2.45
2023-04-03T16:19:26.383Z,2.55
2023-04-03T16:21:56.161Z,2.17
2023-04-03T16:26:54.326Z,2.83
2023-04-03T16:29:22.110Z,2.40
2023-04-03T16:31:50.328Z,3.03
2023-04-03T16:34:18.186Z,2.28
2023-04-03T16:36:45.963Z,2.60
2023-04-03T16:39:14.135Z,3.05
2023-04-03T16:41:41.897Z,2.65
2023-04-03T16:44:10.950Z,2.50
2023-04-03T16:46:39.104Z,2.60
2023-04-03T16:49:06.853Z,2.97
2023-04-03T16:51:35.806Z,3.03
2023-04-03T16:54:03.939Z,2.55
2023-04-03T16:56:31.628Z,3.03
2023-04-03T16:58:59.454Z,2.47
2023-04-03T17:01:29.245Z,2.83
2023-04-03T17:03:57.028Z,2.33
2023-04-03T17:06:25.533Z,2.60
2023-04-03T17:08:54.583Z,2.50
2023-04-03T17:11:22.512Z,2.40
2023-04-03T17:13:50.203Z,2.33
2023-04-03T17:16:18.740Z,2.28
2023-04-03T17:18:49.080Z,2.78
2023-04-03T17:21:18.529Z,2.50
2023-04-03T17:23:50.437Z,2.60
2023-04-03T17:26:18.394Z,2.28
2023-04-03T17:28:46.865Z,2.10
2023-04-03T17:31:14.638Z,2.30
2023-04-03T17:33:42.801Z,2.45
2023-04-03T17:36:12.526Z,2.30
2023-04-03T17:41:10.392Z,2.75
2023-04-03T17:43:38.994Z,2.30
2023-04-03T17:46:09.150Z,2.70
2023-04-03T17:48:39.830Z,2.30
2023-04-03T17:51:08.311Z,2.00
2023-04-03T17:53:37.485Z,2.47
2023-04-03T17:56:09.179Z,2.15
2023-04-03T17:58:37.370Z,2.35
2023-04-03T18:01:13.806Z,2.20
2023-04-03T18:03:42.865Z,2.10
2023-04-03T18:06:14.127Z,1.92
2023-04-03T18:08:47.969Z,2.25
2023-04-03T18:11:17.198Z,3.15
2023-04-03T18:13:46.731Z,2.00
2023-04-03T18:16:15.023Z,6.80
2023-04-03T18:18:43.321Z,8.98
2023-04-03T18:21:13.363Z,2.70
2023-04-03T18:23:46.439Z,1.83
2023-04-03T18:26:18.068Z,3.10
2023-04-03T18:28:52.144Z,2.58
2023-04-03T18:31:21.005Z,2.15
2023-04-03T18:33:48.693Z,2.42
2023-04-03T18:38:51.292Z,2.28
2023-04-03T18:41:22.345Z,2.10
2023-04-03T18:43:50.265Z,2.60
2023-04-03T18:46:19.632Z,1.98
2023-04-03T18:48:48.099Z,2.20
2023-04-03T18:51:16.310Z,2.10
2023-04-03T18:53:44.149Z,2.30
2023-04-03T18:56:13.800Z,2.60
2023-04-03T19:01:09.149Z,2.25
2023-04-03T19:03:38.629Z,2.10
2023-04-03T19:06:06.863Z,2.03
2023-04-03T19:08:34.861Z,2.38
2023-04-03T19:11:04.242Z,2.03
2023-04-03T19:13:33.600Z,2.50
2023-04-03T19:16:01.927Z,2.22
2023-04-03T19:18:31.216Z,2.25
2023-04-03T19:20:59.975Z,2.70
2023-04-03T19:23:28.029Z,2.22
2023-04-03T19:26:01.408Z,2.47
2023-04-03T19:28:29.544Z,2.00
2023-04-03T19:30:59.233Z,2.53
2023-04-03T19:35:55.658Z,2.50
2023-04-03T19:38:23.454Z,2.08
2023-04-03T19:40:51.845Z,2.10
2023-04-03T19:43:19.802Z,2.65
2023-04-03T19:45:47.505Z,2.42
2023-04-03T19:48:17.229Z,2.67
2023-04-03T19:53:19.106Z,2.28
2023-04-03T19:55:46.950Z,2.47
2023-04-03T19:58:14.677Z,2.20
2023-04-03T20:00:43.253Z,2.20
2023-04-03T20:03:11.002Z,2.88
2023-04-03T20:05:40.083Z,2.50
2023-04-03T20:08:08.112Z,2.67
2023-04-03T20:10:40.386Z,2.60
2023-04-03T20:13:11.106Z,2.20
2023-04-03T20:15:41.254Z,2.67
2023-04-03T20:18:09.876Z,2.88
2023-04-03T20:20:42.372Z,2.35
2023-04-03T20:23:13.185Z,2.13
2023-04-03T20:28:15.660Z,3.22
2023-04-03T20:30:46.352Z,2.70
2023-04-03T20:33:14.298Z,2.40
2023-04-03T20:35:42.131Z,2.17
2023-04-03T20:38:12.441Z,2.67
2023-04-03T20:40:40.800Z,2.55
2023-04-03T20:43:09.160Z,2.17
2023-04-03T20:45:37.252Z,2.28
2023-04-03T20:48:05.801Z,2.55
2023-04-03T20:50:34.871Z,2.63
2023-04-03T20:53:03.557Z,3.05
2023-04-03T20:55:32.747Z,2.60
2023-04-03T20:58:02.049Z,2.53
2023-04-03T21:00:32.336Z,2.97
2023-04-03T21:03:01.356Z,2.55
2023-04-03T21:05:30.623Z,2.47
2023-04-03T21:08:36.195Z,2.83
2023-04-03T21:11:41.271Z,2.60
2023-04-03T21:14:48.576Z,2.40
2023-04-03T21:17:16.249Z,2.65
2023-04-03T21:19:46.772Z,3.60
2023-04-03T21:22:16.641Z,2.58
2023-04-03T21:24:45.237Z,2.78
2023-04-03T21:27:12.954Z,2.45
2023-04-03T21:29:41.170Z,2.55
2023-04-03T21:32:08.925Z,2.67
2023-04-03T21:34:36.760Z,2.60
2023-04-03T21:37:07.121Z,2.50
2023-04-03T21:39:35.095Z,2.33
2023-04-03T21:42:02.780Z,2.55
2023-04-03T21:44:31.066Z,2.60
2023-04-03T21:46:59.797Z,2.70
2023-04-03T21:49:27.488Z,2.70
2023-04-03T21:51:55.758Z,3.05
2023-04-03T21:54:25.670Z,2.97
2023-04-03T21:56:53.344Z,3.08
2023-04-03T21:59:21.672Z,2.70
2023-04-03T22:01:49.474Z,2.85
2023-04-03T22:04:17.246Z,2.70
2023-04-03T22:06:46.377Z,2.60
2023-04-03T22:09:14.177Z,3.10
2023-04-03T22:11:45.848Z,2.70
2023-04-03T22:14:14.353Z,2.47
2023-04-03T22:16:42.017Z,2.70
2023-04-03T22:19:09.865Z,2.58
2023-04-03T22:21:37.954Z,2.67
2023-04-03T22:24:06.076Z,2.80
2023-04-03T22:26:34.203Z,2.70
2023-04-03T22:29:04.607Z,2.83
2023-04-03T22:31:32.412Z,2.83
2023-04-03T22:34:04.518Z,2.60
2023-04-03T22:36:32.194Z,2.55
2023-04-03T22:39:00.222Z,2.40
2023-04-03T22:41:28.428Z,2.33
2023-04-03T22:43:58.127Z,2.80
2023-04-03T22:48:57.634Z,2.17
2023-04-03T22:51:25.345Z,2.30
2023-04-03T22:53:53.499Z,2.25
2023-04-03T22:56:23.236Z,2.60
2023-04-03T22:58:52.383Z,2.58
2023-04-03T23:01:20.493Z,2.70
2023-04-03T23:03:49.654Z,2.33
2023-04-03T23:06:17.328Z,2.33
2023-04-03T23:08:45.374Z,2.30
2023-04-03T23:11:13.068Z,2.60
2023-04-03T23:13:40.824Z,2.80
2023-04-03T23:16:08.819Z,2.33
2023-04-03T23:18:39.624Z,2.60
2023-04-03T23:21:09.568Z,2.10
2023-04-03T23:23:37.350Z,2.40
2023-04-03T23:26:05.627Z,2.40
2023-04-03T23:28:33.698Z,2.45
2023-04-03T23:31:03.264Z,2.35
2023-04-03T23:33:31.770Z,2.40
2023-04-03T23:36:02.362Z,2.33
2023-04-03T23:38:31.412Z,2.20
2023-04-03T23:40:59.065Z,2.58
2023-04-03T23:43:27.176Z,2.20
2023-04-03T23:45:55.229Z,2.30
2023-04-03T23:48:22.941Z,2.20
2023-04-03T23:50:50.918Z,2.63
2023-04-03T23:53:19.042Z,2.45
2023-04-03T23:55:48.084Z,2.30
2023-04-03T23:58:16.145Z,2.65
